Time;durP1;ratioP1;P1;durP2;ratioP2;P2;SDS_P1;SDS_P2;PMS_P1;PMS_P2;Temp;Humidity;BMP_temperature;BMP_pressure;BME280_temperature;BME280_humidity;BME280_pressure;Samples;Min_cycle;Max_cycle;Signal;HPM_P1;HPM_P2
2023/08/23 00:00:05;;;;;;;3.75;2.40;;;;;;;;;;5070730;28;20020;-83
2023/08/23 00:03:29;;;;;;;3.00;2.30;;;;;;;;;;5062071;28;20070;-83
2023/08/23 00:06:44;;;;;;;3.05;2.10;;;;;;;;;;5058327;28;20038;-83
2023/08/23 00:09:10;;;;;;;3.75;2.70;;;;;;;;;;5035602;28;20032;-82
2023/08/23 00:11:54;;;;;;;2.17;1.98;;;;;;;;;;5062479;28;20036;-84
2023/08/23 00:15:16;;;;;;;2.70;2.30;;;;;;;;;;5078244;28;20027;-83
2023/08/23 00:17:38;;;;;;;3.00;2.45;;;;;;;;;;5072417;28;20347;-83
2023/08/23 00:23:14;;;;;;;2.10;1.90;;;;;;;;;;5064292;28;20032;-84
2023/08/23 00:25:43;;;;;;;3.42;2.17;;;;;;;;;;5068924;28;20767;-83
2023/08/23 00:28:29;;;;;;;3.05;2.35;;;;;;;;;;5072464;28;20017;-83
2023/08/23 00:30:58;;;;;;;1.98;1.80;;;;;;;;;;5076002;28;20020;-84
2023/08/23 00:33:24;;;;;;;3.65;2.30;;;;;;;;;;5076513;28;20024;-82
2023/08/23 00:35:52;;;;;;;2.65;2.38;;;;;;;;;;5081222;28;20046;-81
2023/08/23 00:38:30;;;;;;;2.60;2.22;;;;;;;;;;5057838;28;20021;-83
2023/08/23 00:40:56;;;;;;;3.90;2.17;;;;;;;;;;5058614;28;20177;-83
2023/08/23 00:43:34;;;;;;;2.58;2.30;;;;;;;;;;5077089;28;20040;-83
2023/08/23 00:46:08;;;;;;;3.85;2.63;;;;;;;;;;5083167;28;20056;-85
2023/08/23 00:48:34;;;;;;;2.47;2.08;;;;;;;;;;5077531;28;20020;-84
2023/08/23 00:51:03;;;;;;;3.00;2.10;;;;;;;;;;5078103;28;20051;-82
2023/08/23 00:53:29;;;;;;;2.63;2.20;;;;;;;;;;5081837;28;20073;-83
2023/08/23 00:56:00;;;;;;;3.17;2.50;;;;;;;;;;5078507;28;20040;-83
2023/08/23 00:58:29;;;;;;;2.85;2.53;;;;;;;;;;5050510;28;20056;-83
2023/08/23 01:01:12;;;;;;;4.25;2.33;;;;;;;;;;5057178;28;20040;-84
2023/08/23 01:03:50;;;;;;;2.75;2.50;;;;;;;;;;5073486;28;20048;-83
2023/08/23 01:06:19;;;;;;;3.35;2.42;;;;;;;;;;5070259;28;20502;-83
2023/08/23 01:09:17;;;;;;;3.65;2.55;;;;;;;;;;5075174;28;20080;-83
2023/08/23 01:12:11;;;;;;;3.00;2.35;;;;;;;;;;5077974;28;20036;-83
2023/08/23 01:14:55;;;;;;;2.53;2.30;;;;;;;;;;5051632;28;20032;-83
2023/08/23 01:17:31;;;;;;;3.20;2.75;;;;;;;;;;5042992;28;20570;-83
2023/08/23 01:20:03;;;;;;;3.25;2.53;;;;;;;;;;5077667;28;20028;-83
2023/08/23 01:22:35;;;;;;;3.83;2.92;;;;;;;;;;5077509;28;20388;-83
2023/08/23 01:25:09;;;;;;;4.25;2.80;;;;;;;;;;5075685;28;20255;-83
2023/08/23 01:27:36;;;;;;;3.17;2.42;;;;;;;;;;5056977;28;20037;-83
2023/08/23 01:33:08;;;;;;;9.55;3.20;;;;;;;;;;5069101;28;20066;-83
2023/08/23 01:39:03;;;;;;;4.43;2.42;;;;;;;;;;4995568;28;20243;-83
2023/08/23 01:41:41;;;;;;;4.22;2.95;;;;;;;;;;5048469;28;20493;-84
2023/08/23 01:44:07;;;;;;;4.60;2.28;;;;;;;;;;5066641;28;20040;-82
2023/08/23 01:46:34;;;;;;;3.80;2.45;;;;;;;;;;5073082;28;20035;-80
2023/08/23 01:49:00;;;;;;;3.40;2.72;;;;;;;;;;5087265;28;20048;-80
2023/08/23 01:51:26;;;;;;;5.53;2.80;;;;;;;;;;5094669;28;20024;-81
2023/08/23 01:53:51;;;;;;;3.40;2.80;;;;;;;;;;5080310;28;20031;-80
2023/08/23 01:56:16;;;;;;;3.55;2.55;;;;;;;;;;5063237;28;20028;-81
2023/08/23 01:58:42;;;;;;;4.88;2.80;;;;;;;;;;5090584;28;20412;-81
2023/08/23 02:01:07;;;;;;;5.32;2.88;;;;;;;;;;5078786;28;20027;-80
2023/08/23 02:03:32;;;;;;;4.20;2.67;;;;;;;;;;5060241;28;20017;-81
2023/08/23 02:05:58;;;;;;;5.00;2.35;;;;;;;;;;5077046;28;20031;-80
2023/08/23 02:08:23;;;;;;;5.25;3.30;;;;;;;;;;5080535;28;20024;-81
2023/08/23 02:10:48;;;;;;;6.70;2.90;;;;;;;;;;5060371;28;20407;-81
2023/08/23 02:13:14;;;;;;;3.75;2.90;;;;;;;;;;5074163;28;20091;-80
2023/08/23 02:15:39;;;;;;;2.67;2.47;;;;;;;;;;5090819;28;20029;-81
2023/08/23 02:18:05;;;;;;;2.47;2.28;;;;;;;;;;5087576;28;20482;-81
2023/08/23 02:20:30;;;;;;;4.55;2.78;;;;;;;;;;5088494;28;20083;-81
2023/08/23 02:22:55;;;;;;;4.75;2.95;;;;;;;;;;5089116;28;20025;-81
2023/08/23 02:25:21;;;;;;;4.32;2.33;;;;;;;;;;5090112;28;20040;-81
2023/08/23 02:27:46;;;;;;;2.92;2.28;;;;;;;;;;5068989;28;20032;-81
2023/08/23 02:30:13;;;;;;;4.28;2.60;;;;;;;;;;5068762;28;20085;-81
2023/08/23 02:32:38;;;;;;;4.85;2.90;;;;;;;;;;5078450;28;20029;-81
2023/08/23 02:35:04;;;;;;;2.95;2.60;;;;;;;;;;5088731;28;20029;-81
2023/08/23 02:37:29;;;;;;;3.47;2.72;;;;;;;;;;5097012;28;20047;-81
2023/08/23 02:39:54;;;;;;;3.47;2.60;;;;;;;;;;5065610;28;20050;-81
2023/08/23 02:42:20;;;;;;;3.80;2.45;;;;;;;;;;5083579;28;20016;-81
2023/08/23 02:44:45;;;;;;;2.55;2.25;;;;;;;;;;5058050;28;20108;-81
2023/08/23 02:47:10;;;;;;;3.47;2.30;;;;;;;;;;5080259;28;20040;-81
2023/08/23 02:49:36;;;;;;;3.03;2.80;;;;;;;;;;5081337;28;20032;-81
2023/08/23 02:52:01;;;;;;;3.67;2.72;;;;;;;;;;5079742;28;20095;-81
2023/08/23 02:54:27;;;;;;;2.50;2.30;;;;;;;;;;5082405;28;20417;-81
2023/08/23 02:56:52;;;;;;;2.97;2.65;;;;;;;;;;5071458;28;20029;-80
2023/08/23 02:59:17;;;;;;;4.57;2.78;;;;;;;;;;5083658;28;20012;-81
2023/08/23 03:01:43;;;;;;;3.08;2.53;;;;;;;;;;5070034;28;20024;-82
2023/08/23 03:04:08;;;;;;;2.83;2.53;;;;;;;;;;5069943;28;20020;-81
2023/08/23 03:06:33;;;;;;;3.42;2.95;;;;;;;;;;5070360;28;20088;-80
2023/08/23 03:08:59;;;;;;;2.58;2.30;;;;;;;;;;5086884;28;20062;-81
2023/08/23 03:11:24;;;;;;;3.35;2.50;;;;;;;;;;5092426;28;20047;-81
2023/08/23 03:13:49;;;;;;;3.75;2.58;;;;;;;;;;5074371;28;20310;-81
2023/08/23 03:16:15;;;;;;;3.35;2.58;;;;;;;;;;5070187;28;20009;-81
2023/08/23 03:18:40;;;;;;;3.85;2.83;;;;;;;;;;5086001;28;20099;-81
2023/08/23 03:21:05;;;;;;;3.95;3.30;;;;;;;;;;5097898;28;20099;-81
2023/08/23 03:23:31;;;;;;;4.28;3.13;;;;;;;;;;5090653;28;20103;-80
2023/08/23 03:25:56;;;;;;;6.78;3.10;;;;;;;;;;5091143;28;20040;-81
2023/08/23 03:28:21;;;;;;;4.28;3.00;;;;;;;;;;5068031;28;20040;-81
2023/08/23 03:30:47;;;;;;;7.90;3.08;;;;;;;;;;5085484;28;20028;-80
2023/08/23 03:33:12;;;;;;;3.72;2.92;;;;;;;;;;5087762;28;20028;-81
2023/08/23 03:35:38;;;;;;;3.10;2.80;;;;;;;;;;5077076;28;20024;-81
2023/08/23 03:38:03;;;;;;;4.72;3.03;;;;;;;;;;5080355;28;20087;-81
2023/08/23 03:40:37;;;;;;;5.95;3.00;;;;;;;;;;5068747;28;20009;-81
2023/08/23 03:43:03;;;;;;;4.15;2.85;;;;;;;;;;5080196;28;20021;-82
2023/08/23 03:45:29;;;;;;;4.38;3.00;;;;;;;;;;5071476;28;20035;-81
2023/08/23 03:47:55;;;;;;;4.47;3.13;;;;;;;;;;5071094;28;20028;-81
2023/08/23 03:50:20;;;;;;;4.07;2.83;;;;;;;;;;5076342;28;20326;-80
2023/08/23 03:52:45;;;;;;;4.00;2.85;;;;;;;;;;5073264;28;20035;-81
2023/08/23 03:55:11;;;;;;;6.07;3.38;;;;;;;;;;5052851;28;20025;-81
2023/08/23 03:57:36;;;;;;;3.47;2.78;;;;;;;;;;5091912;28;20029;-81
2023/08/23 04:00:01;;;;;;;5.38;3.40;;;;;;;;;;5088100;28;20024;-81
2023/08/23 04:02:28;;;;;;;4.15;3.00;;;;;;;;;;5080686;28;20031;-81
2023/08/23 04:04:53;;;;;;;4.63;2.95;;;;;;;;;;5080251;28;20016;-80
2023/08/23 04:07:19;;;;;;;3.80;3.20;;;;;;;;;;5069259;28;20035;-81
2023/08/23 04:09:44;;;;;;;3.88;2.80;;;;;;;;;;5097495;28;20070;-81
2023/08/23 04:12:10;;;;;;;3.92;2.78;;;;;;;;;;5077618;28;20083;-80
2023/08/23 04:14:35;;;;;;;3.95;2.92;;;;;;;;;;5069862;28;20024;-81
2023/08/23 04:17:01;;;;;;;3.67;2.90;;;;;;;;;;5083897;28;20036;-80
2023/08/23 04:19:27;;;;;;;5.72;3.72;;;;;;;;;;5077740;28;20152;-81
2023/08/23 04:21:52;;;;;;;3.65;2.90;;;;;;;;;;5080827;28;20158;-80
2023/08/23 04:24:17;;;;;;;4.07;3.10;;;;;;;;;;5085508;28;20036;-82
2023/08/23 04:26:43;;;;;;;4.57;2.80;;;;;;;;;;5077716;28;20093;-81
2023/08/23 04:29:08;;;;;;;4.80;3.40;;;;;;;;;;5082824;28;20040;-81
2023/08/23 04:31:34;;;;;;;5.57;3.13;;;;;;;;;;5060228;28;20050;-81
2023/08/23 04:34:02;;;;;;;4.88;3.30;;;;;;;;;;5075057;28;20107;-80
2023/08/23 04:36:27;;;;;;;5.43;2.88;;;;;;;;;;5075831;28;20024;-81
2023/08/23 04:38:52;;;;;;;6.63;3.80;;;;;;;;;;5067195;28;20023;-81
2023/08/23 04:41:17;;;;;;;3.92;3.00;;;;;;;;;;5078651;28;20032;-81
2023/08/23 04:43:43;;;;;;;4.35;3.03;;;;;;;;;;5079872;28;20028;-81
2023/08/23 04:46:08;;;;;;;4.00;3.15;;;;;;;;;;5076307;28;20109;-81
2023/08/23 04:48:34;;;;;;;3.28;2.97;;;;;;;;;;5068147;28;20047;-81
2023/08/23 04:50:59;;;;;;;4.93;3.35;;;;;;;;;;5082146;28;20027;-81
2023/08/23 04:53:25;;;;;;;4.55;3.13;;;;;;;;;;5064197;28;20027;-81
2023/08/23 04:55:54;;;;;;;4.38;3.13;;;;;;;;;;5071302;28;20029;-81
2023/08/23 04:58:20;;;;;;;3.95;3.53;;;;;;;;;;5067421;28;20028;-81
2023/08/23 05:00:45;;;;;;;3.75;3.45;;;;;;;;;;5090363;28;20044;-80
2023/08/23 05:03:11;;;;;;;3.38;2.78;;;;;;;;;;5056590;28;20032;-81
2023/08/23 05:05:37;;;;;;;3.53;2.80;;;;;;;;;;5074130;28;20498;-80
2023/08/23 05:08:03;;;;;;;3.78;2.67;;;;;;;;;;5086013;28;20032;-80
2023/08/23 05:10:28;;;;;;;3.55;2.80;;;;;;;;;;5049700;28;20035;-82
2023/08/23 05:12:55;;;;;;;3.67;2.70;;;;;;;;;;5080392;28;20491;-81
2023/08/23 05:15:22;;;;;;;4.93;3.30;;;;;;;;;;5055246;28;20032;-81
2023/08/23 05:17:47;;;;;;;3.22;2.92;;;;;;;;;;5064993;28;20035;-81
2023/08/23 05:20:14;;;;;;;4.43;2.78;;;;;;;;;;5095426;28;20027;-79
2023/08/23 05:22:40;;;;;;;3.40;3.00;;;;;;;;;;5092863;28;20040;-80
2023/08/23 05:25:05;;;;;;;4.25;3.00;;;;;;;;;;5064864;28;20021;-81
2023/08/23 05:27:30;;;;;;;4.57;3.25;;;;;;;;;;5084607;28;20089;-81
2023/08/23 05:29:58;;;;;;;5.53;3.53;;;;;;;;;;5078070;28;20040;-81
2023/08/23 05:32:24;;;;;;;5.10;3.83;;;;;;;;;;5077294;28;20017;-81
2023/08/23 05:34:49;;;;;;;6.20;3.78;;;;;;;;;;5091044;28;20022;-81
2023/08/23 05:37:14;;;;;;;6.70;3.67;;;;;;;;;;5068057;28;21903;-80
2023/08/23 05:39:40;;;;;;;5.47;3.97;;;;;;;;;;5096383;28;20028;-81
2023/08/23 05:42:05;;;;;;;4.30;3.65;;;;;;;;;;5094164;28;20039;-80
2023/08/23 05:44:30;;;;;;;5.65;3.63;;;;;;;;;;5082730;28;20032;-82
2023/08/23 05:46:56;;;;;;;5.70;3.67;;;;;;;;;;5082026;28;20071;-80
2023/08/23 05:49:21;;;;;;;4.70;3.97;;;;;;;;;;5075363;28;20020;-80
2023/08/23 05:51:47;;;;;;;4.75;3.72;;;;;;;;;;5071653;28;20068;-80
2023/08/23 05:54:12;;;;;;;5.35;3.95;;;;;;;;;;5070863;28;20085;-79
2023/08/23 05:56:37;;;;;;;4.05;3.28;;;;;;;;;;5071659;28;20062;-80
2023/08/23 05:59:03;;;;;;;4.45;3.45;;;;;;;;;;5095687;28;20043;-80
2023/08/23 06:01:28;;;;;;;6.35;3.30;;;;;;;;;;5090496;28;20020;-79
2023/08/23 06:03:53;;;;;;;4.28;3.35;;;;;;;;;;5084496;28;20040;-79
2023/08/23 06:06:19;;;;;;;6.47;3.38;;;;;;;;;;5064516;28;20559;-81
2023/08/23 06:08:44;;;;;;;6.53;3.65;;;;;;;;;;5089668;28;20036;-79
2023/08/23 06:11:09;;;;;;;4.05;3.20;;;;;;;;;;5087301;28;20048;-80
2023/08/23 06:13:35;;;;;;;8.00;4.15;;;;;;;;;;5082000;28;20055;-80
2023/08/23 06:16:00;;;;;;;7.05;3.75;;;;;;;;;;5084750;28;20021;-80
2023/08/23 06:18:26;;;;;;;5.00;3.78;;;;;;;;;;5061246;28;20033;-80
2023/08/23 06:20:51;;;;;;;7.70;4.10;;;;;;;;;;5086802;28;20033;-81
2023/08/23 06:23:16;;;;;;;5.47;3.47;;;;;;;;;;5087294;28;20056;-80
2023/08/23 06:25:42;;;;;;;5.00;3.72;;;;;;;;;;5080376;28;20055;-81
2023/08/23 06:28:08;;;;;;;5.32;3.13;;;;;;;;;;5075591;28;20024;-80
2023/08/23 06:30:37;;;;;;;6.53;3.50;;;;;;;;;;5093969;28;20404;-80
2023/08/23 06:33:05;;;;;;;4.35;3.10;;;;;;;;;;5072054;28;20028;-80
2023/08/23 06:35:31;;;;;;;4.32;3.60;;;;;;;;;;5078883;28;20103;-79
2023/08/23 06:37:56;;;;;;;10.40;3.40;;;;;;;;;;5095720;28;20033;-80
2023/08/23 06:40:22;;;;;;;3.63;3.03;;;;;;;;;;5087076;28;20153;-80
2023/08/23 06:42:47;;;;;;;3.75;3.20;;;;;;;;;;5072051;28;20499;-81
2023/08/23 06:45:12;;;;;;;4.28;3.25;;;;;;;;;;5074262;28;20043;-81
2023/08/23 06:47:38;;;;;;;4.72;3.08;;;;;;;;;;5063843;28;20100;-80
2023/08/23 06:50:03;;;;;;;3.25;2.88;;;;;;;;;;5068733;28;20473;-79
2023/08/23 06:52:29;;;;;;;5.75;3.08;;;;;;;;;;5068075;28;20032;-80
2023/08/23 06:54:55;;;;;;;3.15;2.70;;;;;;;;;;5063597;28;20039;-80
2023/08/23 06:57:28;;;;;;;4.97;2.83;;;;;;;;;;5074304;28;20092;-81
2023/08/23 06:59:54;;;;;;;5.80;3.13;;;;;;;;;;5080917;28;20024;-80
2023/08/23 07:02:19;;;;;;;7.30;3.50;;;;;;;;;;5067516;28;20039;-80
2023/08/23 07:04:44;;;;;;;3.30;3.00;;;;;;;;;;5077290;28;20028;-81
2023/08/23 07:07:10;;;;;;;4.05;2.72;;;;;;;;;;5089609;28;20024;-81
2023/08/23 07:09:35;;;;;;;3.85;2.65;;;;;;;;;;5079324;28;20023;-80
2023/08/23 07:12:00;;;;;;;4.88;3.10;;;;;;;;;;5096967;28;20012;-81
2023/08/23 07:14:26;;;;;;;3.63;3.17;;;;;;;;;;5082031;28;20024;-81
2023/08/23 07:16:51;;;;;;;4.65;2.75;;;;;;;;;;5088439;28;20119;-81
2023/08/23 07:19:16;;;;;;;3.15;2.70;;;;;;;;;;5075969;28;20048;-81
2023/08/23 07:21:42;;;;;;;5.53;2.90;;;;;;;;;;5087691;28;20025;-81
2023/08/23 07:24:07;;;;;;;3.95;2.78;;;;;;;;;;5073575;28;20027;-81
2023/08/23 07:26:33;;;;;;;3.15;2.60;;;;;;;;;;5083956;28;20073;-81
2023/08/23 07:28:59;;;;;;;3.22;2.70;;;;;;;;;;5091688;28;20158;-81
2023/08/23 07:31:24;;;;;;;2.95;2.45;;;;;;;;;;5096126;28;20036;-81
2023/08/23 07:33:49;;;;;;;3.97;3.00;;;;;;;;;;5077555;28;20048;-81
2023/08/23 07:36:15;;;;;;;4.05;2.50;;;;;;;;;;5078497;28;20024;-81
2023/08/23 07:38:41;;;;;;;3.30;2.78;;;;;;;;;;5072442;28;20195;-81
2023/08/23 07:41:06;;;;;;;5.22;2.95;;;;;;;;;;5089017;28;20031;-81
2023/08/23 07:43:32;;;;;;;3.53;2.35;;;;;;;;;;5080602;28;20025;-81
2023/08/23 07:46:03;;;;;;;3.53;2.50;;;;;;;;;;5079336;28;20021;-81
2023/08/23 07:48:28;;;;;;;2.80;2.53;;;;;;;;;;5074857;28;20016;-81
2023/08/23 07:51:00;;;;;;;3.38;2.80;;;;;;;;;;5075384;28;20024;-81
2023/08/23 07:53:26;;;;;;;4.65;2.70;;;;;;;;;;5079242;28;20031;-81
2023/08/23 07:55:51;;;;;;;2.85;2.63;;;;;;;;;;5077755;28;20032;-81
2023/08/23 07:58:17;;;;;;;3.58;2.90;;;;;;;;;;5077512;28;20029;-80
2023/08/23 08:00:42;;;;;;;3.08;2.60;;;;;;;;;;5084996;28;20050;-80
2023/08/23 08:03:11;;;;;;;2.85;2.58;;;;;;;;;;5082956;28;20044;-81
2023/08/23 08:05:37;;;;;;;6.53;3.15;;;;;;;;;;5076101;28;20066;-80
2023/08/23 08:08:04;;;;;;;3.92;2.85;;;;;;;;;;5078520;28;20054;-80
2023/08/23 08:10:29;;;;;;;3.67;3.00;;;;;;;;;;5076482;28;20024;-80
2023/08/23 08:12:55;;;;;;;3.47;2.63;;;;;;;;;;5060523;28;20037;-80
2023/08/23 08:15:21;;;;;;;3.75;2.90;;;;;;;;;;5080737;28;20056;-81
2023/08/23 08:17:50;;;;;;;4.28;2.95;;;;;;;;;;5087814;28;20024;-81
2023/08/23 08:20:16;;;;;;;4.00;2.75;;;;;;;;;;5089332;28;20016;-81
2023/08/23 08:22:42;;;;;;;5.25;2.83;;;;;;;;;;5081071;28;20043;-81
2023/08/23 08:25:08;;;;;;;4.13;3.03;;;;;;;;;;5070811;28;20020;-81
2023/08/23 08:27:34;;;;;;;4.78;3.03;;;;;;;;;;5072303;28;20046;-81
2023/08/23 08:29:59;;;;;;;3.67;2.90;;;;;;;;;;5096004;28;20025;-81
2023/08/23 08:32:26;;;;;;;5.40;3.20;;;;;;;;;;5088930;28;20080;-81
2023/08/23 08:34:51;;;;;;;4.22;2.70;;;;;;;;;;5087760;28;20024;-80
2023/08/23 08:37:18;;;;;;;5.15;3.00;;;;;;;;;;5090156;28;20093;-81
2023/08/23 08:39:43;;;;;;;3.92;3.03;;;;;;;;;;5081941;28;20112;-83
2023/08/23 08:42:10;;;;;;;4.93;2.83;;;;;;;;;;5085816;28;20028;-81
2023/08/23 08:44:35;;;;;;;4.15;3.00;;;;;;;;;;5081182;28;20420;-81
2023/08/23 08:47:01;;;;;;;4.72;2.95;;;;;;;;;;5060256;28;20036;-80
2023/08/23 08:49:26;;;;;;;4.22;2.55;;;;;;;;;;5091872;28;20059;-81
2023/08/23 08:51:57;;;;;;;4.22;2.42;;;;;;;;;;5069889;28;20012;-81
2023/08/23 08:54:23;;;;;;;3.92;2.60;;;;;;;;;;5087087;28;20106;-80
2023/08/23 08:56:51;;;;;;;4.50;2.50;;;;;;;;;;5071259;28;20028;-81
2023/08/23 08:59:17;;;;;;;2.80;2.40;;;;;;;;;;5075490;28;20476;-81
2023/08/23 09:01:44;;;;;;;5.97;2.80;;;;;;;;;;5074989;28;20032;-81
2023/08/23 09:04:10;;;;;;;3.35;2.25;;;;;;;;;;5053985;28;20020;-81
2023/08/23 09:06:37;;;;;;;3.78;2.55;;;;;;;;;;5089584;28;20028;-82
2023/08/23 09:09:03;;;;;;;3.20;2.50;;;;;;;;;;5090045;28;20084;-82
2023/08/23 09:11:29;;;;;;;3.05;2.55;;;;;;;;;;5093540;28;20028;-82
2023/08/23 09:13:55;;;;;;;3.55;2.72;;;;;;;;;;5073930;28;20025;-81
2023/08/23 09:16:22;;;;;;;3.60;2.67;;;;;;;;;;5060740;28;20056;-81
2023/08/23 09:18:48;;;;;;;4.95;2.70;;;;;;;;;;5055437;28;20017;-82
2023/08/23 09:21:13;;;;;;;5.30;2.72;;;;;;;;;;5046617;28;20027;-82
2023/08/23 09:23:39;;;;;;;5.82;3.00;;;;;;;;;;5076472;28;20028;-82
2023/08/23 09:26:08;;;;;;;4.82;2.83;;;;;;;;;;5061831;28;20020;-81
2023/08/23 09:28:33;;;;;;;4.35;2.53;;;;;;;;;;5089998;28;20413;-82
2023/08/23 09:31:00;;;;;;;3.03;2.72;;;;;;;;;;5079337;28;20025;-82
2023/08/23 09:33:25;;;;;;;4.00;2.60;;;;;;;;;;5082869;28;20012;-82
2023/08/23 09:35:51;;;;;;;3.25;2.38;;;;;;;;;;5079929;28;20016;-82
2023/08/23 09:38:23;;;;;;;2.42;2.22;;;;;;;;;;5082181;28;20023;-82
2023/08/23 09:40:48;;;;;;;3.60;2.70;;;;;;;;;;5065487;28;20017;-82
2023/08/23 09:43:17;;;;;;;3.80;2.50;;;;;;;;;;5082240;28;20032;-82
2023/08/23 09:45:44;;;;;;;3.75;2.70;;;;;;;;;;5084290;28;20028;-82
2023/08/23 09:48:11;;;;;;;3.72;2.65;;;;;;;;;;5091541;28;20023;-83
2023/08/23 09:50:36;;;;;;;4.57;2.38;;;;;;;;;;5090607;28;20030;-82
2023/08/23 09:53:10;;;;;;;4.80;2.30;;;;;;;;;;5092614;28;20099;-82
2023/08/23 09:55:37;;;;;;;5.32;2.25;;;;;;;;;;5082712;28;20479;-82
2023/08/23 09:58:03;;;;;;;3.75;2.50;;;;;;;;;;5100763;28;20016;-82
2023/08/23 10:00:29;;;;;;;6.55;2.22;;;;;;;;;;5094927;28;20419;-82
2023/08/23 10:02:58;;;;;;;3.50;2.85;;;;;;;;;;5082894;28;20081;-82
2023/08/23 10:05:25;;;;;;;3.88;2.60;;;;;;;;;;5082408;28;20013;-82
2023/08/23 10:07:53;;;;;;;5.82;2.92;;;;;;;;;;5088547;28;20222;-82
2023/08/23 10:10:18;;;;;;;3.78;2.25;;;;;;;;;;5080135;28;20116;-81
2023/08/23 10:12:47;;;;;;;3.55;2.42;;;;;;;;;;5090211;28;20020;-82
2023/08/23 10:15:15;;;;;;;2.65;2.15;;;;;;;;;;5088259;28;20115;-82
2023/08/23 10:17:44;;;;;;;4.38;2.20;;;;;;;;;;5097759;28;20027;-82
2023/08/23 10:20:10;;;;;;;1.95;1.85;;;;;;;;;;5102805;28;20012;-82
2023/08/23 10:22:36;;;;;;;2.60;2.03;;;;;;;;;;5099098;28;20089;-80
2023/08/23 10:25:12;;;;;;;2.83;2.13;;;;;;;;;;5101054;28;20024;-82
2023/08/23 10:27:38;;;;;;;3.67;2.40;;;;;;;;;;5099652;28;20062;-82
2023/08/23 10:30:07;;;;;;;3.92;2.22;;;;;;;;;;5104230;28;20136;-82
2023/08/23 10:32:36;;;;;;;2.63;2.15;;;;;;;;;;5090454;28;20029;-83
2023/08/23 10:35:02;;;;;;;2.50;2.30;;;;;;;;;;5065638;28;20047;-82
2023/08/23 10:37:28;;;;;;;3.50;2.25;;;;;;;;;;5073511;28;20048;-80
2023/08/23 10:39:54;;;;;;;3.42;2.20;;;;;;;;;;5077355;28;20027;-82
2023/08/23 10:42:21;;;;;;;3.33;2.47;;;;;;;;;;5070723;28;20078;-82
2023/08/23 10:44:53;;;;;;;2.67;2.03;;;;;;;;;;5085618;28;20233;-82
2023/08/23 10:47:19;;;;;;;5.90;2.50;;;;;;;;;;5074512;28;20488;-82
2023/08/23 10:49:45;;;;;;;2.65;2.20;;;;;;;;;;5089687;28;20035;-83
2023/08/23 10:52:10;;;;;;;2.03;1.75;;;;;;;;;;5099145;28;20040;-82
2023/08/23 10:54:36;;;;;;;3.42;2.30;;;;;;;;;;5084275;28;20069;-83
2023/08/23 10:57:02;;;;;;;2.67;2.33;;;;;;;;;;5090205;28;20032;-82
2023/08/23 10:59:28;;;;;;;3.53;2.78;;;;;;;;;;5096123;28;20024;-82
2023/08/23 11:01:53;;;;;;;3.00;2.40;;;;;;;;;;5086201;28;20048;-82
2023/08/23 11:04:19;;;;;;;5.70;2.38;;;;;;;;;;5070936;28;20025;-82
2023/08/23 11:06:46;;;;;;;6.10;2.72;;;;;;;;;;5083726;28;20047;-82
2023/08/23 11:09:11;;;;;;;4.97;2.50;;;;;;;;;;5078287;28;20063;-82
2023/08/23 11:11:36;;;;;;;2.95;2.47;;;;;;;;;;5084277;28;20056;-82
2023/08/23 11:14:03;;;;;;;2.42;2.22;;;;;;;;;;5082139;28;20060;-82
2023/08/23 11:16:28;;;;;;;2.60;2.33;;;;;;;;;;5089248;28;20046;-82
2023/08/23 11:18:54;;;;;;;3.90;2.50;;;;;;;;;;5087589;28;20048;-83
2023/08/23 11:21:19;;;;;;;5.38;2.20;;;;;;;;;;5081325;28;20034;-82
2023/08/23 11:23:45;;;;;;;3.75;2.25;;;;;;;;;;5081692;28;20103;-83
2023/08/23 11:26:10;;;;;;;3.53;2.63;;;;;;;;;;5071139;28;20046;-82
2023/08/23 11:28:36;;;;;;;3.28;2.08;;;;;;;;;;5100184;28;20036;-82
2023/08/23 11:31:06;;;;;;;3.72;2.08;;;;;;;;;;5091573;28;20242;-82
2023/08/23 11:33:32;;;;;;;2.78;1.88;;;;;;;;;;5087335;28;20042;-82
2023/08/23 11:35:57;;;;;;;3.63;2.40;;;;;;;;;;5091502;28;20072;-82
2023/08/23 11:38:29;;;;;;;2.45;1.92;;;;;;;;;;5070338;28;20032;-82
2023/08/23 11:40:56;;;;;;;2.67;1.90;;;;;;;;;;5077549;28;20076;-82
2023/08/23 11:43:22;;;;;;;2.78;2.10;;;;;;;;;;5086689;28;20027;-82
2023/08/23 11:45:52;;;;;;;2.47;2.20;;;;;;;;;;5063123;28;20013;-82
2023/08/23 11:48:17;;;;;;;2.78;2.20;;;;;;;;;;5088623;28;20568;-82
2023/08/23 11:50:44;;;;;;;2.72;1.95;;;;;;;;;;5079772;28;20021;-83
2023/08/23 11:53:10;;;;;;;2.40;2.05;;;;;;;;;;5083080;28;20025;-82
2023/08/23 11:55:35;;;;;;;2.85;1.80;;;;;;;;;;5092650;28;20495;-82
2023/08/23 11:58:02;;;;;;;3.22;2.05;;;;;;;;;;5060157;28;20016;-82
2023/08/23 12:00:28;;;;;;;3.20;2.38;;;;;;;;;;5078909;28;20033;-82
2023/08/23 12:02:53;;;;;;;3.83;2.40;;;;;;;;;;5069286;28;20055;-82
2023/08/23 12:05:19;;;;;;;3.42;1.98;;;;;;;;;;5089535;28;20043;-82
2023/08/23 12:07:48;;;;;;;4.20;2.13;;;;;;;;;;5088499;28;20028;-82
2023/08/23 12:10:14;;;;;;;2.67;2.22;;;;;;;;;;5055448;28;20021;-81
2023/08/23 12:12:39;;;;;;;4.22;2.13;;;;;;;;;;5080347;28;20036;-81
2023/08/23 12:15:06;;;;;;;3.55;2.45;;;;;;;;;;5077957;28;20028;-81
2023/08/23 12:17:32;;;;;;;4.78;2.17;;;;;;;;;;5084795;28;20042;-81
2023/08/23 12:19:58;;;;;;;2.58;2.20;;;;;;;;;;5078042;28;20038;-81
2023/08/23 12:22:23;;;;;;;3.35;2.25;;;;;;;;;;5085941;28;20020;-81
2023/08/23 12:24:49;;;;;;;3.33;2.10;;;;;;;;;;5084344;28;20028;-80
2023/08/23 12:27:14;;;;;;;2.92;1.98;;;;;;;;;;5068632;28;21172;-81
2023/08/23 12:29:41;;;;;;;2.75;2.00;;;;;;;;;;5098820;28;20092;-82
2023/08/23 12:32:07;;;;;;;3.30;2.25;;;;;;;;;;5091542;28;20027;-82
2023/08/23 12:34:32;;;;;;;3.20;2.40;;;;;;;;;;5087696;28;20020;-82
2023/08/23 12:36:59;;;;;;;3.35;2.42;;;;;;;;;;5068794;28;20049;-81
2023/08/23 12:39:25;;;;;;;2.75;2.38;;;;;;;;;;5081087;28;20024;-82
2023/08/23 12:41:50;;;;;;;2.35;2.13;;;;;;;;;;5082276;28;20020;-82
2023/08/23 12:44:15;;;;;;;3.65;2.45;;;;;;;;;;5089297;28;20027;-82
2023/08/23 12:46:41;;;;;;;1.90;1.80;;;;;;;;;;5085282;28;20035;-82
2023/08/23 12:49:12;;;;;;;3.67;2.20;;;;;;;;;;5089513;28;20084;-82
2023/08/23 12:51:40;;;;;;;2.35;2.08;;;;;;;;;;5094509;28;20088;-82
2023/08/23 12:54:06;;;;;;;2.70;2.13;;;;;;;;;;5077954;28;20063;-82
2023/08/23 12:56:33;;;;;;;2.70;2.10;;;;;;;;;;5091521;28;20021;-81
2023/08/23 12:58:59;;;;;;;6.72;2.28;;;;;;;;;;5093906;28;20083;-82
2023/08/23 13:01:24;;;;;;;2.53;2.20;;;;;;;;;;5063813;28;20040;-82
2023/08/23 13:03:50;;;;;;;2.72;2.28;;;;;;;;;;5078547;28;20061;-82
2023/08/23 13:06:15;;;;;;;6.60;2.47;;;;;;;;;;5096940;28;20013;-82
2023/08/23 13:08:41;;;;;;;2.60;2.10;;;;;;;;;;5077736;28;20060;-81
2023/08/23 13:11:07;;;;;;;2.53;2.25;;;;;;;;;;5076556;28;20075;-82
2023/08/23 13:13:36;;;;;;;3.95;1.95;;;;;;;;;;5079781;28;20138;-82
2023/08/23 13:16:01;;;;;;;1.75;1.65;;;;;;;;;;5079659;28;20020;-81
2023/08/23 13:18:27;;;;;;;3.13;1.90;;;;;;;;;;5057955;28;20035;-81
2023/08/23 13:20:52;;;;;;;2.60;2.15;;;;;;;;;;5064478;28;20028;-82
2023/08/23 13:23:18;;;;;;;3.08;2.08;;;;;;;;;;5086665;28;20056;-81
2023/08/23 13:25:43;;;;;;;2.78;2.40;;;;;;;;;;5085907;28;20103;-81
2023/08/23 13:28:09;;;;;;;2.83;1.80;;;;;;;;;;5082938;28;20020;-81
2023/08/23 13:30:34;;;;;;;2.63;1.90;;;;;;;;;;5084838;28;20023;-82
2023/08/23 13:33:00;;;;;;;2.95;1.98;;;;;;;;;;5084179;28;20021;-82
2023/08/23 13:35:25;;;;;;;3.20;2.20;;;;;;;;;;5061887;28;20031;-82
2023/08/23 13:37:51;;;;;;;3.20;1.70;;;;;;;;;;5061956;28;20403;-81
2023/08/23 13:40:16;;;;;;;3.40;2.22;;;;;;;;;;5071303;28;20044;-81
2023/08/23 13:42:41;;;;;;;2.38;2.15;;;;;;;;;;5081365;28;20055;-82
2023/08/23 13:45:07;;;;;;;2.28;2.05;;;;;;;;;;5083932;28;20027;-82
2023/08/23 13:47:33;;;;;;;2.55;2.08;;;;;;;;;;5090344;28;20032;-81
2023/08/23 13:49:58;;;;;;;2.97;2.03;;;;;;;;;;5074620;28;20092;-82
2023/08/23 13:52:23;;;;;;;2.63;2.00;;;;;;;;;;5057599;28;20021;-82
2023/08/23 13:54:49;;;;;;;3.65;1.80;;;;;;;;;;5047373;28;20048;-82
2023/08/23 13:57:14;;;;;;;3.72;2.20;;;;;;;;;;5091114;28;20024;-82
2023/08/23 13:59:40;;;;;;;2.30;2.08;;;;;;;;;;5079803;28;20023;-82
2023/08/23 14:02:05;;;;;;;1.98;1.77;;;;;;;;;;5073064;28;20143;-82
2023/08/23 14:04:32;;;;;;;2.13;1.90;;;;;;;;;;5074582;28;20104;-82
2023/08/23 14:06:58;;;;;;;1.70;1.60;;;;;;;;;;5048985;28;20111;-82
2023/08/23 14:09:24;;;;;;;2.60;1.90;;;;;;;;;;5086482;28;20499;-84
2023/08/23 14:11:53;;;;;;;3.20;2.03;;;;;;;;;;5072266;28;20028;-83
2023/08/23 14:14:19;;;;;;;2.42;2.22;;;;;;;;;;5071004;28;20016;-83
2023/08/23 14:16:44;;;;;;;2.00;1.90;;;;;;;;;;5096154;28;20038;-82
2023/08/23 14:19:10;;;;;;;2.00;1.70;;;;;;;;;;5099182;28;20031;-83
2023/08/23 14:21:35;;;;;;;3.05;1.90;;;;;;;;;;5090701;28;20016;-83
2023/08/23 14:24:01;;;;;;;1.70;1.50;;;;;;;;;;5075167;28;20509;-83
2023/08/23 14:26:26;;;;;;;4.38;1.92;;;;;;;;;;5083563;28;20016;-83
2023/08/23 14:28:51;;;;;;;1.70;1.60;;;;;;;;;;5085020;28;20031;-83
2023/08/23 14:31:17;;;;;;;2.10;1.90;;;;;;;;;;5084711;28;20502;-83
2023/08/23 14:33:42;;;;;;;2.15;1.77;;;;;;;;;;5076252;28;20029;-83
2023/08/23 14:36:07;;;;;;;2.38;1.48;;;;;;;;;;5072659;28;20075;-83
2023/08/23 14:38:33;;;;;;;2.53;1.90;;;;;;;;;;5082773;28;20628;-83
2023/08/23 14:40:58;;;;;;;3.85;1.73;;;;;;;;;;5078446;28;20395;-83
2023/08/23 14:43:23;;;;;;;1.70;1.60;;;;;;;;;;5077710;28;20020;-83
2023/08/23 14:45:49;;;;;;;2.92;1.60;;;;;;;;;;5079450;28;20109;-84
2023/08/23 14:48:14;;;;;;;2.20;1.55;;;;;;;;;;5080703;28;20040;-82
2023/08/23 14:50:39;;;;;;;2.33;1.80;;;;;;;;;;5076764;28;20033;-82